createdAt,value
2018-02-18T00:00:40.710Z,13.27
2018-02-18T00:01:43.223Z,14.32
2018-02-18T00:02:47.365Z,13.55
2018-02-18T00:03:50.220Z,14.77
2018-02-18T00:04:54.610Z,13.60
2018-02-18T00:05:57.573Z,12.55
2018-02-18T00:07:00.263Z,13.20
2018-02-18T00:08:03.850Z,14.13
2018-02-18T00:09:09.143Z,13.27
2018-02-18T00:10:12.382Z,13.93
2018-02-18T00:11:14.882Z,13.90
2018-02-18T00:12:18.239Z,12.32
2018-02-18T00:13:21.495Z,13.18
2018-02-18T00:14:24.894Z,13.02
2018-02-18T00:15:27.379Z,12.13
2018-02-18T00:16:29.898Z,12.15
2018-02-18T00:17:32.412Z,13.32
2018-02-18T00:18:37.246Z,13.18
2018-02-18T00:19:39.868Z,12.98
2018-02-18T00:20:42.360Z,12.18
2018-02-18T00:21:47.716Z,12.02
2018-02-18T00:22:50.992Z,11.35
2018-02-18T00:23:54.041Z,11.88
2018-02-18T00:24:56.555Z,11.43
2018-02-18T00:25:59.087Z,12.45
2018-02-18T00:27:01.607Z,13.07
2018-02-18T00:28:04.842Z,11.57
2018-02-18T00:29:08.186Z,12.75
2018-02-18T00:30:11.644Z,11.80
2018-02-18T00:31:14.111Z,12.23
2018-02-18T00:32:17.475Z,12.52
2018-02-18T00:33:21.563Z,11.40
2018-02-18T00:34:24.089Z,11.15
2018-02-18T00:35:26.651Z,11.77
2018-02-18T00:36:29.152Z,11.05
2018-02-18T00:37:31.816Z,11.65
2018-02-18T00:38:34.389Z,11.18
2018-02-18T00:39:38.629Z,11.38
2018-02-18T00:40:44.529Z,11.20
2018-02-18T00:41:47.130Z,10.05
2018-02-18T00:42:49.767Z,11.63
2018-02-18T00:43:52.231Z,11.85
2018-02-18T00:44:55.492Z,11.50
2018-02-18T00:45:58.002Z,11.70
2018-02-18T00:47:01.267Z,11.30
2018-02-18T00:48:03.842Z,10.15
2018-02-18T00:49:07.124Z,10.68
2018-02-18T00:50:10.460Z,10.20
2018-02-18T00:51:13.723Z,11.65
2018-02-18T00:52:16.203Z,10.13
2018-02-18T00:53:19.590Z,11.45
2018-02-18T00:54:22.076Z,10.98
2018-02-18T00:55:24.551Z,9.98
2018-02-18T00:56:27.065Z,11.55
2018-02-18T00:57:29.539Z,11.40
2018-02-18T00:58:32.019Z,10.43
2018-02-18T00:59:34.530Z,10.38
2018-02-18T01:00:37.433Z,10.15
2018-02-18T01:01:40.098Z,11.02
2018-02-18T01:02:42.593Z,9.50
2018-02-18T01:03:45.102Z,10.48
2018-02-18T01:04:47.603Z,9.50
2018-02-18T01:05:50.084Z,9.52
2018-02-18T01:06:53.333Z,10.55
2018-02-18T01:07:56.607Z,10.30
2018-02-18T01:08:59.130Z,10.13
2018-02-18T01:10:02.034Z,10.32
2018-02-18T01:11:05.270Z,9.85
2018-02-18T01:12:08.517Z,10.10
2018-02-18T01:13:11.751Z,9.98
2018-02-18T01:14:17.406Z,11.40
2018-02-18T01:15:19.879Z,10.55
2018-02-18T01:16:23.130Z,11.12
2018-02-18T01:17:26.383Z,10.63
2018-02-18T01:18:28.855Z,10.02
2018-02-18T01:19:31.347Z,10.27
2018-02-18T01:20:33.811Z,9.35
2018-02-18T01:21:36.278Z,9.70
2018-02-18T01:22:40.322Z,9.52
2018-02-18T01:23:43.551Z,9.75
2018-02-18T01:24:46.110Z,10.40
2018-02-18T01:25:48.631Z,10.82
2018-02-18T01:26:51.925Z,9.50
2018-02-18T01:27:54.411Z,9.73
2018-02-18T01:28:57.503Z,10.38
2018-02-18T01:29:59.971Z,10.23
2018-02-18T01:31:02.448Z,9.88
2018-02-18T01:32:04.913Z,10.30
2018-02-18T01:33:07.418Z,10.52
2018-02-18T01:34:09.874Z,9.98
2018-02-18T01:35:12.346Z,9.23
2018-02-18T01:36:14.817Z,9.77
2018-02-18T01:37:17.304Z,10.32
2018-02-18T01:38:20.691Z,10.27
2018-02-18T01:39:23.179Z,11.00
2018-02-18T01:40:25.640Z,9.45
2018-02-18T01:41:28.128Z,10.30
2018-02-18T01:42:30.587Z,10.15
2018-02-18T01:43:33.060Z,9.82
2018-02-18T01:44:35.659Z,10.20
2018-02-18T01:45:38.238Z,11.77
2018-02-18T01:46:41.476Z,10.00
2018-02-18T01:47:44.760Z,10.30
2018-02-18T01:48:47.990Z,9.88
2018-02-18T01:49:51.952Z,10.48
2018-02-18T01:50:55.125Z,10.05
2018-02-18T01:51:57.647Z,10.20
2018-02-18T01:53:00.095Z,9.90
2018-02-18T01:54:02.676Z,10.80
2018-02-18T01:55:06.043Z,10.45
2018-02-18T01:56:09.302Z,10.32
2018-02-18T01:57:11.767Z,11.15
2018-02-18T01:58:14.999Z,10.68
2018-02-18T01:59:18.234Z,10.38
2018-02-18T02:00:20.752Z,10.00
2018-02-18T02:01:23.238Z,10.90
2018-02-18T02:02:25.730Z,10.55
2018-02-18T02:03:28.981Z,10.20
2018-02-18T02:04:32.350Z,10.70
2018-02-18T02:05:34.806Z,10.43
2018-02-18T02:06:38.063Z,10.10
2018-02-18T02:07:40.530Z,10.20
2018-02-18T02:08:43.016Z,9.90
2018-02-18T02:09:45.569Z,10.73
2018-02-18T02:10:48.041Z,10.20
2018-02-18T02:11:50.512Z,10.02
2018-02-18T02:12:53.748Z,9.25
2018-02-18T02:13:57.057Z,10.15
2018-02-18T02:14:59.592Z,10.32
2018-02-18T02:16:02.038Z,9.63
2018-02-18T02:17:05.290Z,10.30
2018-02-18T02:18:08.519Z,9.82
2018-02-18T02:19:11.771Z,9.95
2018-02-18T02:20:14.991Z,9.43
2018-02-18T02:21:17.475Z,10.80
2018-02-18T02:22:19.950Z,10.02
2018-02-18T02:23:22.457Z,10.02
2018-02-18T02:24:24.954Z,10.63
2018-02-18T02:25:27.467Z,9.95
2018-02-18T02:26:29.951Z,10.20
2018-02-18T02:27:32.422Z,9.60
2018-02-18T02:28:34.963Z,9.95
2018-02-18T02:29:37.436Z,9.25
2018-02-18T02:30:40.707Z,9.60
2018-02-18T02:31:43.185Z,9.82
2018-02-18T02:32:47.167Z,9.15
2018-02-18T02:33:50.825Z,8.93
2018-02-18T02:34:53.356Z,10.25
2018-02-18T02:35:56.594Z,9.27
2018-02-18T02:36:59.826Z,8.63
2018-02-18T02:38:03.057Z,9.55
2018-02-18T02:39:05.554Z,8.95
2018-02-18T02:40:08.149Z,9.20
2018-02-18T02:41:10.624Z,9.00
2018-02-18T02:42:13.096Z,8.20
2018-02-18T02:43:15.615Z,9.98
2018-02-18T02:44:18.089Z,8.35
2018-02-18T02:45:20.591Z,9.10
2018-02-18T02:46:23.083Z,8.55
2018-02-18T02:47:26.328Z,8.65
2018-02-18T02:48:28.904Z,8.30
2018-02-18T02:49:31.402Z,8.10
2018-02-18T02:50:33.907Z,8.23
2018-02-18T02:51:36.384Z,8.95
2018-02-18T02:52:38.838Z,8.52
2018-02-18T02:53:42.069Z,8.40
2018-02-18T02:54:44.550Z,7.85
2018-02-18T02:55:47.008Z,8.68
2018-02-18T02:56:49.490Z,7.20
2018-02-18T02:57:51.950Z,8.15
2018-02-18T02:58:54.445Z,8.35
2018-02-18T02:59:56.956Z,8.90
2018-02-18T03:00:59.415Z,8.13
2018-02-18T03:02:01.875Z,8.55
2018-02-18T03:03:04.336Z,8.68
2018-02-18T03:04:06.788Z,8.07
2018-02-18T03:05:09.278Z,7.97
2018-02-18T03:06:11.758Z,7.55
2018-02-18T03:07:15.778Z,7.25
2018-02-18T03:08:18.278Z,8.25
2018-02-18T03:09:20.727Z,8.63
2018-02-18T03:10:23.232Z,7.50
2018-02-18T03:11:26.459Z,7.70
2018-02-18T03:12:29.730Z,7.97
2018-02-18T03:13:32.238Z,7.62
2018-02-18T03:14:35.483Z,7.90
2018-02-18T03:15:38.010Z,8.27
2018-02-18T03:16:40.484Z,8.02
2018-02-18T03:17:42.972Z,7.47
2018-02-18T03:18:45.486Z,8.82
2018-02-18T03:19:48.023Z,7.55
2018-02-18T03:20:50.480Z,7.22
2018-02-18T03:21:53.002Z,7.75
2018-02-18T03:22:56.265Z,7.50
2018-02-18T03:23:58.747Z,8.02
2018-02-18T03:25:01.309Z,8.63
2018-02-18T03:26:03.832Z,8.00
2018-02-18T03:27:06.296Z,7.65
2018-02-18T03:28:09.552Z,8.50
2018-02-18T03:29:12.090Z,8.27
2018-02-18T03:30:14.614Z,8.20
2018-02-18T03:31:17.080Z,8.40
2018-02-18T03:32:19.529Z,8.02
2018-02-18T03:33:22.795Z,8.65
2018-02-18T03:34:25.279Z,8.13
2018-02-18T03:35:27.736Z,8.48
2018-02-18T03:36:30.976Z,7.78
2018-02-18T03:37:34.864Z,8.75
2018-02-18T03:38:37.345Z,8.75
2018-02-18T03:39:39.828Z,8.13
2018-02-18T03:40:42.305Z,7.60
2018-02-18T03:41:45.536Z,8.13
2018-02-18T03:42:48.050Z,8.00
2018-02-18T03:43:50.539Z,8.10
2018-02-18T03:44:53.032Z,7.55
2018-02-18T03:45:56.273Z,8.00
2018-02-18T03:46:59.625Z,7.82
2018-02-18T03:48:02.137Z,7.53
2018-02-18T03:49:04.720Z,7.70
2018-02-18T03:50:07.210Z,7.70
2018-02-18T03:51:09.662Z,7.28
2018-02-18T03:52:12.148Z,7.12
2018-02-18T03:53:14.622Z,7.20
2018-02-18T03:54:17.106Z,7.72
2018-02-18T03:55:19.581Z,7.57
2018-02-18T03:56:22.076Z,7.30
2018-02-18T03:57:24.602Z,7.87
2018-02-18T03:58:27.058Z,7.30
2018-02-18T03:59:29.522Z,8.05
2018-02-18T04:00:32.008Z,8.02
2018-02-18T04:01:34.520Z,8.05
2018-02-18T04:02:36.978Z,7.47
2018-02-18T04:03:40.207Z,7.62
2018-02-18T04:04:42.667Z,7.30
2018-02-18T04:05:45.179Z,7.50
2018-02-18T04:06:48.743Z,7.93
2018-02-18T04:07:51.196Z,8.10
2018-02-18T04:08:53.640Z,7.75
2018-02-18T04:09:56.142Z,8.32
2018-02-18T04:10:58.731Z,7.15
2018-02-18T04:12:01.959Z,8.00
2018-02-18T04:13:05.868Z,8.40
2018-02-18T04:14:08.456Z,8.00
2018-02-18T04:15:11.718Z,7.18
2018-02-18T04:16:14.175Z,8.20
2018-02-18T04:17:16.647Z,8.20
2018-02-18T04:18:19.907Z,7.60
2018-02-18T04:19:22.393Z,7.85
2018-02-18T04:20:24.895Z,8.00
2018-02-18T04:21:27.380Z,8.88
2018-02-18T04:22:29.843Z,8.30
2018-02-18T04:23:32.311Z,7.50
2018-02-18T04:24:36.171Z,7.82
2018-02-18T04:25:39.432Z,7.80
2018-02-18T04:26:41.955Z,7.03
2018-02-18T04:27:44.429Z,8.40
2018-02-18T04:28:46.991Z,7.75
2018-02-18T04:29:49.462Z,8.75
2018-02-18T04:30:52.481Z,8.52
2018-02-18T04:31:54.940Z,7.93
2018-02-18T04:32:57.391Z,7.25
2018-02-18T04:34:00.623Z,7.50
2018-02-18T04:35:03.136Z,7.97
2018-02-18T04:36:05.619Z,6.70
2018-02-18T04:37:08.134Z,7.82
2018-02-18T04:38:10.590Z,6.90
2018-02-18T04:39:13.062Z,7.40
2018-02-18T04:40:16.315Z,8.00
2018-02-18T04:41:19.546Z,7.10
2018-02-18T04:42:22.786Z,7.87
2018-02-18T04:43:26.026Z,7.60
2018-02-18T04:44:29.295Z,7.90
2018-02-18T04:45:31.770Z,8.10
2018-02-18T04:46:34.257Z,8.02
2018-02-18T04:47:36.722Z,7.60
2018-02-18T04:48:39.193Z,7.60
2018-02-18T04:49:41.673Z,7.75
2018-02-18T04:50:44.156Z,8.10
2018-02-18T04:51:46.662Z,8.00
2018-02-18T04:52:49.118Z,7.70
2018-02-18T04:53:52.344Z,8.35
2018-02-18T04:54:54.854Z,8.25
2018-02-18T04:55:57.324Z,8.07
2018-02-18T04:56:59.853Z,7.85
2018-02-18T04:58:02.430Z,8.50
2018-02-18T04:59:04.910Z,8.40
2018-02-18T05:00:07.394Z,7.80
2018-02-18T05:01:09.874Z,7.78
2018-02-18T05:02:13.848Z,8.23
2018-02-18T05:03:17.121Z,9.48
2018-02-18T05:04:19.574Z,8.50
2018-02-18T05:05:22.060Z,9.90
2018-02-18T05:06:24.554Z,9.75
2018-02-18T05:07:27.111Z,10.27
2018-02-18T05:08:29.643Z,11.18
2018-02-18T05:09:32.158Z,11.68
2018-02-18T05:10:36.215Z,11.73
2018-02-18T05:11:39.463Z,10.82
2018-02-18T05:12:42.697Z,10.63
2018-02-18T05:13:46.041Z,9.65
2018-02-18T05:14:49.667Z,9.40
2018-02-18T05:15:52.136Z,9.45
2018-02-18T05:16:54.601Z,12.32
2018-02-18T05:17:57.062Z,10.85
2018-02-18T05:19:00.435Z,10.60
2018-02-18T05:20:02.909Z,10.40
2018-02-18T05:21:05.373Z,9.88
2018-02-18T05:22:07.851Z,8.88
2018-02-18T05:23:10.546Z,9.15
2018-02-18T05:24:13.011Z,8.38
2018-02-18T05:25:15.479Z,8.10
2018-02-18T05:26:17.955Z,8.50
2018-02-18T05:27:20.420Z,8.55
2018-02-18T05:28:23.674Z,7.60
2018-02-18T05:29:26.206Z,7.57
2018-02-18T05:30:28.671Z,8.50
2018-02-18T05:31:31.136Z,7.45
2018-02-18T05:32:34.362Z,7.78
2018-02-18T05:33:37.618Z,8.07
2018-02-18T05:34:40.874Z,8.30
2018-02-18T05:35:43.339Z,8.20
2018-02-18T05:36:45.810Z,8.82
2018-02-18T05:37:49.059Z,7.70
2018-02-18T05:38:51.528Z,7.00
2018-02-18T05:39:54.019Z,7.50
2018-02-18T05:40:56.478Z,7.57
2018-02-18T05:41:58.949Z,7.43
2018-02-18T05:43:02.178Z,7.37
2018-02-18T05:44:05.413Z,8.35
2018-02-18T05:45:07.931Z,7.22
2018-02-18T05:46:10.383Z,8.05
2018-02-18T05:47:13.594Z,7.75
2018-02-18T05:48:16.063Z,8.20
2018-02-18T05:49:19.220Z,7.82
2018-02-18T05:50:21.741Z,7.57
2018-02-18T05:51:24.222Z,6.87
2018-02-18T05:52:26.683Z,7.05
2018-02-18T05:53:29.155Z,7.05
2018-02-18T05:54:31.613Z,7.03
2018-02-18T05:55:34.838Z,7.60
2018-02-18T05:56:37.348Z,7.65
2018-02-18T05:57:40.240Z,7.18
2018-02-18T05:58:42.778Z,7.30
2018-02-18T05:59:45.309Z,7.05
2018-02-18T06:00:47.821Z,7.32
2018-02-18T06:01:50.316Z,7.20
2018-02-18T06:02:53.534Z,7.75
2018-02-18T06:03:56.004Z,7.87
2018-02-18T06:04:58.475Z,7.90
2018-02-18T06:06:01.316Z,7.43
2018-02-18T06:07:03.769Z,7.40
2018-02-18T06:08:07.006Z,7.30
2018-02-18T06:09:10.310Z,6.70
2018-02-18T06:10:12.858Z,7.62
2018-02-18T06:11:15.341Z,7.93
2018-02-18T06:12:17.817Z,8.20
2018-02-18T06:13:20.312Z,8.65
2018-02-18T06:14:22.809Z,8.23
2018-02-18T06:15:25.275Z,9.60
2018-02-18T06:16:27.763Z,8.00
2018-02-18T06:17:30.246Z,8.05
2018-02-18T06:18:33.491Z,7.75
2018-02-18T06:19:36.757Z,7.70
2018-02-18T06:20:39.226Z,8.02
2018-02-18T06:21:41.699Z,7.37
2018-02-18T06:22:44.165Z,8.05
2018-02-18T06:23:46.627Z,7.25
2018-02-18T06:24:49.898Z,8.60
2018-02-18T06:25:52.382Z,7.82
2018-02-18T06:26:55.034Z,7.70
2018-02-18T06:27:58.267Z,8.13
2018-02-18T06:29:01.487Z,7.75
2018-02-18T06:30:03.982Z,8.00
2018-02-18T06:31:06.476Z,8.27
2018-02-18T06:32:09.722Z,8.35
2018-02-18T06:33:12.943Z,7.60
2018-02-18T06:34:16.186Z,8.00
2018-02-18T06:35:19.435Z,7.85
2018-02-18T06:36:22.666Z,7.10
2018-02-18T06:37:25.133Z,8.18
2018-02-18T06:38:27.607Z,7.75
2018-02-18T06:39:30.173Z,8.15
2018-02-18T06:40:32.694Z,7.70
2018-02-18T06:41:35.210Z,7.05
2018-02-18T06:42:38.436Z,7.40
2018-02-18T06:43:41.715Z,7.35
2018-02-18T06:44:44.174Z,6.65
2018-02-18T06:45:46.658Z,7.30
2018-02-18T06:46:49.150Z,7.30
2018-02-18T06:47:51.610Z,8.00
2018-02-18T06:48:54.126Z,7.07
2018-02-18T06:49:57.372Z,7.40
2018-02-18T06:50:59.842Z,7.50
2018-02-18T06:52:02.327Z,6.95
2018-02-18T06:53:04.789Z,6.70
2018-02-18T06:54:07.292Z,7.28
2018-02-18T06:55:09.754Z,6.05
2018-02-18T06:56:12.999Z,6.85
2018-02-18T06:57:15.467Z,7.28
2018-02-18T06:58:17.943Z,6.68
2018-02-18T06:59:20.432Z,7.30
2018-02-18T07:00:22.890Z,6.62
2018-02-18T07:01:26.883Z,6.70
2018-02-18T07:02:30.139Z,6.15
2018-02-18T07:03:32.622Z,5.78
2018-02-18T07:04:35.073Z,6.35
2018-02-18T07:05:38.352Z,5.95
2018-02-18T07:06:41.372Z,6.95
2018-02-18T07:07:43.833Z,6.10
2018-02-18T07:08:46.326Z,6.10
2018-02-18T07:09:48.799Z,6.70
2018-02-18T07:10:51.257Z,7.07
2018-02-18T07:11:54.509Z,6.90
2018-02-18T07:12:57.727Z,7.68
2018-02-18T07:14:01.010Z,6.95
2018-02-18T07:15:03.499Z,7.12
2018-02-18T07:16:06.758Z,6.62
2018-02-18T07:17:09.222Z,6.97
2018-02-18T07:18:11.692Z,7.20
2018-02-18T07:19:14.988Z,7.10
2018-02-18T07:20:17.501Z,6.35
2018-02-18T07:21:19.982Z,6.20
2018-02-18T07:22:23.227Z,6.12
2018-02-18T07:23:26.558Z,7.28
2018-02-18T07:24:29.962Z,5.90
2018-02-18T07:25:32.641Z,5.95
2018-02-18T07:26:35.114Z,6.40
2018-02-18T07:27:37.935Z,5.72
2018-02-18T07:28:40.458Z,5.93
2018-02-18T07:29:42.990Z,6.70
2018-02-18T07:30:45.456Z,6.93
2018-02-18T07:31:47.923Z,7.45
2018-02-18T07:32:50.395Z,6.82
2018-02-18T07:33:52.851Z,6.30
2018-02-18T07:34:56.119Z,7.32
2018-02-18T07:35:58.568Z,6.97
2018-02-18T07:37:01.061Z,7.37
2018-02-18T07:38:04.300Z,6.90
2018-02-18T07:39:07.521Z,7.68
2018-02-18T07:40:09.974Z,7.40
2018-02-18T07:41:12.471Z,6.72
2018-02-18T07:42:14.933Z,7.47
2018-02-18T07:43:17.926Z,8.15
2018-02-18T07:44:20.389Z,7.25
2018-02-18T07:45:22.833Z,7.43
2018-02-18T07:46:25.392Z,7.22
2018-02-18T07:47:27.924Z,7.65
2018-02-18T07:48:30.404Z,7.15
2018-02-18T07:49:32.876Z,8.40
2018-02-18T07:50:36.131Z,7.45
2018-02-18T07:51:38.637Z,8.55
2018-02-18T07:52:41.154Z,7.87
2018-02-18T07:53:43.659Z,9.05
2018-02-18T07:54:46.139Z,7.90
2018-02-18T07:55:48.706Z,8.50
2018-02-18T07:56:51.369Z,8.73
2018-02-18T07:57:53.955Z,8.15
2018-02-18T07:58:56.465Z,7.30
2018-02-18T07:59:59.003Z,7.10
2018-02-18T08:01:01.473Z,6.35
2018-02-18T08:02:05.488Z,7.25
2018-02-18T08:03:07.977Z,6.87
2018-02-18T08:04:11.322Z,8.00
2018-02-18T08:05:13.791Z,7.32
2018-02-18T08:06:16.279Z,7.40
2018-02-18T08:07:19.597Z,7.85
2018-02-18T08:08:22.113Z,8.02
2018-02-18T08:09:24.687Z,7.72
2018-02-18T08:10:27.170Z,8.02
2018-02-18T08:11:29.678Z,7.53
2018-02-18T08:12:32.221Z,7.45
2018-02-18T08:13:34.719Z,8.15
2018-02-18T08:14:38.132Z,7.70
2018-02-18T08:15:41.634Z,6.28
2018-02-18T08:16:44.217Z,6.45
2018-02-18T08:17:47.444Z,6.57
2018-02-18T08:18:50.713Z,7.10
2018-02-18T08:19:53.228Z,7.37
2018-02-18T08:20:55.751Z,6.45
2018-02-18T08:21:58.275Z,6.00
2018-02-18T08:23:01.929Z,5.50
2018-02-18T08:24:04.410Z,5.60
2018-02-18T08:26:11.507Z,6.97
2018-02-18T08:27:13.994Z,7.32
2018-02-18T08:28:16.475Z,7.60
2018-02-18T08:29:18.988Z,7.05
2018-02-18T08:30:21.460Z,6.40
2018-02-18T08:31:24.304Z,6.55
2018-02-18T08:32:26.775Z,5.80
2018-02-18T08:33:29.241Z,5.80
2018-02-18T08:34:31.857Z,6.28
2018-02-18T08:35:34.564Z,6.43
2018-02-18T08:36:37.378Z,5.75
2018-02-18T08:37:39.901Z,5.10
2018-02-18T08:38:43.160Z,6.55
2018-02-18T08:39:45.647Z,5.95
2018-02-18T08:40:48.142Z,5.68
2018-02-18T08:41:50.630Z,5.60
2018-02-18T08:42:53.152Z,5.22
2018-02-18T08:43:55.620Z,4.30
2018-02-18T08:44:58.149Z,4.90
2018-02-18T08:46:00.979Z,4.62
2018-02-18T08:47:03.473Z,5.70
2018-02-18T08:48:05.934Z,5.62
2018-02-18T08:49:08.441Z,5.68
2018-02-18T08:50:11.703Z,6.00
2018-02-18T08:51:14.166Z,6.65
2018-02-18T08:52:16.626Z,6.85
2018-02-18T08:53:19.867Z,6.75
2018-02-18T08:54:23.129Z,7.37
2018-02-18T08:55:25.659Z,8.07
2018-02-18T08:56:28.230Z,8.05
2018-02-18T08:57:30.690Z,8.68
2018-02-18T08:58:33.923Z,8.25
2018-02-18T08:59:36.416Z,7.60
2018-02-18T09:00:38.944Z,9.23
2018-02-18T09:01:41.951Z,8.70
2018-02-18T09:02:44.516Z,8.30
2018-02-18T09:03:47.012Z,8.80
2018-02-18T09:04:49.496Z,10.25
2018-02-18T09:05:52.913Z,9.98
2018-02-18T09:06:55.427Z,9.60
2018-02-18T09:07:57.912Z,9.43
2018-02-18T09:09:00.444Z,8.63
2018-02-18T09:10:02.976Z,9.02
2018-02-18T09:11:05.475Z,9.02
2018-02-18T09:12:08.710Z,8.73
2018-02-18T09:13:11.952Z,9.30
2018-02-18T09:14:15.215Z,8.82
2018-02-18T09:15:17.703Z,8.25
2018-02-18T09:16:20.196Z,8.18
2018-02-18T09:17:22.696Z,7.85
2018-02-18T09:18:25.220Z,8.25
2018-02-18T09:19:27.728Z,8.00
2018-02-18T09:20:30.961Z,7.70
2018-02-18T09:21:33.443Z,7.85
2018-02-18T09:22:35.927Z,7.40
2018-02-18T09:23:39.232Z,7.47
2018-02-18T09:24:42.627Z,7.35
2018-02-18T09:25:45.091Z,8.65
2018-02-18T09:26:47.691Z,7.57
2018-02-18T09:27:50.157Z,7.07
2018-02-18T09:28:52.636Z,6.87
2018-02-18T09:29:55.133Z,7.97
2018-02-18T09:30:58.363Z,6.93
2018-02-18T09:32:00.907Z,6.72
2018-02-18T09:33:03.408Z,4.82
2018-02-18T09:34:06.003Z,5.00
2018-02-18T09:35:08.520Z,5.18
2018-02-18T09:36:10.991Z,4.30
2018-02-18T09:37:13.469Z,4.80
2018-02-18T09:38:15.963Z,3.40
2018-02-18T09:39:19.236Z,2.72
2018-02-18T09:40:21.774Z,2.10
2018-02-18T09:41:24.238Z,2.10
2018-02-18T09:42:26.738Z,2.65
2018-02-18T09:43:29.216Z,3.28
2018-02-18T09:44:31.734Z,3.20
2018-02-18T09:45:34.989Z,3.22
2018-02-18T09:46:37.481Z,2.92
2018-02-18T09:47:40.034Z,3.20
2018-02-18T09:48:42.583Z,2.55
2018-02-18T09:49:45.056Z,2.92
2018-02-18T09:50:47.540Z,2.97
2018-02-18T09:51:49.991Z,3.10
2018-02-18T09:52:52.455Z,3.20
2018-02-18T09:53:55.731Z,2.72
2018-02-18T09:54:58.201Z,2.70
2018-02-18T09:56:00.714Z,2.40
2018-02-18T09:57:03.984Z,2.00
2018-02-18T09:58:07.273Z,1.50
2018-02-18T09:59:09.784Z,1.87
2018-02-18T10:00:12.262Z,1.80
2018-02-18T10:01:15.503Z,1.87
2018-02-18T10:02:18.227Z,2.22
2018-02-18T10:03:20.705Z,2.22
2018-02-18T10:04:23.195Z,2.40
2018-02-18T10:05:26.434Z,2.00
2018-02-18T10:06:29.736Z,2.30
2018-02-18T10:07:32.198Z,1.90
2018-02-18T10:08:35.248Z,1.95
2018-02-18T10:09:37.754Z,1.83
2018-02-18T10:10:40.383Z,2.12
2018-02-18T10:11:42.972Z,1.80
2018-02-18T10:12:45.440Z,1.85
2018-02-18T10:13:48.155Z,1.30
2018-02-18T10:14:50.750Z,1.33
2018-02-18T10:15:53.236Z,1.98
2018-02-18T10:16:56.521Z,1.50
2018-02-18T10:17:58.990Z,1.25
2018-02-18T10:19:01.496Z,1.67
2018-02-18T10:20:03.966Z,1.37
2018-02-18T10:21:07.191Z,1.20
2018-02-18T10:22:09.655Z,1.30
2018-02-18T10:23:12.147Z,1.30
2018-02-18T10:24:15.422Z,1.50
2018-02-18T10:25:17.972Z,1.27
2018-02-18T10:26:21.349Z,1.23
2018-02-18T10:27:23.830Z,1.50
2018-02-18T10:28:26.319Z,1.50
2018-02-18T10:29:29.582Z,1.42
2018-02-18T10:30:32.281Z,1.60
2018-02-18T10:31:35.525Z,1.25
2018-02-18T10:32:39.165Z,1.40
2018-02-18T10:33:41.640Z,1.40
2018-02-18T10:34:44.171Z,1.52
2018-02-18T10:35:46.634Z,1.40
2018-02-18T10:36:49.142Z,1.40
2018-02-18T10:37:51.609Z,1.40
2018-02-18T10:38:54.886Z,1.70
2018-02-18T10:39:57.387Z,1.77
2018-02-18T10:40:59.895Z,1.33
2018-02-18T10:42:03.171Z,1.30
2018-02-18T10:43:05.681Z,1.30
2018-02-18T10:44:08.987Z,1.37
2018-02-18T10:45:11.489Z,1.70
2018-02-18T10:46:14.289Z,1.40
2018-02-18T10:47:16.830Z,1.27
2018-02-18T10:48:19.292Z,1.30
2018-02-18T10:49:21.775Z,1.50
2018-02-18T10:50:24.340Z,1.20
2018-02-18T10:51:26.852Z,1.40
2018-02-18T10:52:29.403Z,1.40
2018-02-18T10:53:31.877Z,1.77
2018-02-18T10:54:34.412Z,1.62
2018-02-18T10:55:36.878Z,1.50
2018-02-18T10:56:40.152Z,1.25
2018-02-18T10:57:43.393Z,1.60
2018-02-18T10:58:46.614Z,1.33
2018-02-18T10:59:49.943Z,1.50
2018-02-18T11:00:52.432Z,2.00
2018-02-18T11:01:54.912Z,1.40
2018-02-18T11:02:57.398Z,1.85
2018-02-18T11:03:59.966Z,1.98
2018-02-18T11:05:02.457Z,1.60
2018-02-18T11:06:04.904Z,3.50
2018-02-18T11:07:07.386Z,1.98
2018-02-18T11:08:09.892Z,1.70
2018-02-18T11:09:12.386Z,2.03
2018-02-18T11:10:14.843Z,1.67
2018-02-18T11:11:17.314Z,1.58
2018-02-18T11:12:19.786Z,1.40
2018-02-18T11:13:22.453Z,1.30
2018-02-18T11:14:24.914Z,1.42
2018-02-18T11:15:28.143Z,1.70
2018-02-18T11:16:30.619Z,1.52
2018-02-18T11:17:33.090Z,1.73
2018-02-18T11:18:36.048Z,1.50
2018-02-18T11:19:39.287Z,1.52
2018-02-18T11:20:42.511Z,1.80
2018-02-18T11:21:45.078Z,1.27
2018-02-18T11:22:47.575Z,1.70
2018-02-18T11:23:50.075Z,1.40
2018-02-18T11:24:52.540Z,1.50
2018-02-18T11:25:55.785Z,1.55
2018-02-18T11:26:59.142Z,1.35
2018-02-18T11:28:01.609Z,1.85
2018-02-18T11:29:04.119Z,1.52
2018-02-18T11:30:06.633Z,1.48
2018-02-18T11:31:09.519Z,1.55
2018-02-18T11:32:13.509Z,1.50
2018-02-18T11:33:15.986Z,2.08
2018-02-18T11:34:18.466Z,1.73
2018-02-18T11:35:20.973Z,1.75
2018-02-18T11:36:24.211Z,1.75
2018-02-18T11:37:27.457Z,1.50
2018-02-18T11:38:29.944Z,1.52
2018-02-18T11:39:32.859Z,1.80
2018-02-18T11:40:35.396Z,1.60
2018-02-18T11:41:37.878Z,1.80
2018-02-18T11:42:40.402Z,1.60
2018-02-18T11:43:42.897Z,1.62
2018-02-18T11:44:45.404Z,2.15
2018-02-18T11:45:47.927Z,1.60
2018-02-18T11:46:50.420Z,1.80
2018-02-18T11:47:52.938Z,1.55
2018-02-18T11:48:55.468Z,1.35
2018-02-18T11:49:57.958Z,1.52
2018-02-18T11:51:00.437Z,1.80
2018-02-18T11:52:02.938Z,1.65
2018-02-18T11:53:05.434Z,1.80
2018-02-18T11:54:08.690Z,1.60
2018-02-18T11:55:11.217Z,1.62
2018-02-18T11:56:14.503Z,1.77
2018-02-18T11:57:16.977Z,2.05
2018-02-18T11:58:20.210Z,1.90
2018-02-18T11:59:23.451Z,1.90
2018-02-18T12:00:26.107Z,1.77
2018-02-18T12:01:28.773Z,1.70
2018-02-18T12:02:31.259Z,1.70
2018-02-18T12:03:34.525Z,1.50
2018-02-18T12:04:37.003Z,2.70
2018-02-18T12:05:40.942Z,4.45
2018-02-18T12:06:43.428Z,2.30
2018-02-18T12:07:46.232Z,1.60
2018-02-18T12:08:49.719Z,1.73
2018-02-18T12:09:52.273Z,1.70
2018-02-18T12:10:54.735Z,1.95
2018-02-18T12:11:57.998Z,1.87
2018-02-18T12:13:00.516Z,1.58
2018-02-18T12:14:03.019Z,1.33
2018-02-18T12:15:06.257Z,1.58
2018-02-18T12:16:09.540Z,1.75
2018-02-18T12:17:12.075Z,1.70
2018-02-18T12:18:14.551Z,1.58
2018-02-18T12:19:17.599Z,1.62
2018-02-18T12:20:20.073Z,1.75
2018-02-18T12:21:22.542Z,1.70
2018-02-18T12:22:25.784Z,1.70
2018-02-18T12:23:29.028Z,1.90
2018-02-18T12:24:32.278Z,1.77
2018-02-18T12:25:36.116Z,1.65
2018-02-18T12:26:39.362Z,1.80
2018-02-18T12:27:42.682Z,1.62
2018-02-18T12:28:45.156Z,2.03
2018-02-18T12:29:47.618Z,1.50
2018-02-18T12:30:50.104Z,1.50
2018-02-18T12:31:52.644Z,1.75
2018-02-18T12:32:55.193Z,1.62
2018-02-18T12:33:57.806Z,1.65
2018-02-18T12:35:00.319Z,1.60
2018-02-18T12:36:02.799Z,1.80
2018-02-18T12:37:05.385Z,1.90
2018-02-18T12:38:07.946Z,1.60
2018-02-18T12:39:10.396Z,1.60
2018-02-18T12:40:13.679Z,1.75
2018-02-18T12:41:16.161Z,1.67
2018-02-18T12:42:19.479Z,1.50
2018-02-18T12:43:23.502Z,1.70
2018-02-18T12:44:26.001Z,2.08
2018-02-18T12:45:29.261Z,1.87
2018-02-18T12:46:32.198Z,1.60
2018-02-18T12:47:35.456Z,1.62
2018-02-18T12:48:37.957Z,1.77
2018-02-18T12:49:40.447Z,2.03
2018-02-18T12:50:42.911Z,1.87
2018-02-18T12:51:45.705Z,1.70
2018-02-18T12:52:48.271Z,2.00
2018-02-18T12:53:50.798Z,1.50
2018-02-18T12:54:53.396Z,2.20
2018-02-18T12:55:56.199Z,1.95
2018-02-18T12:56:58.734Z,1.80
2018-02-18T12:58:01.223Z,1.80
2018-02-18T12:59:03.732Z,2.00
2018-02-18T13:00:06.253Z,1.95
2018-02-18T13:01:08.749Z,2.17
2018-02-18T13:02:12.692Z,2.25
2018-02-18T13:03:15.157Z,2.62
2018-02-18T13:04:17.679Z,2.25
2018-02-18T13:05:20.929Z,1.80
2018-02-18T13:06:23.464Z,2.55
2018-02-18T13:07:25.913Z,2.60
2018-02-18T13:08:28.385Z,2.47
2018-02-18T13:09:31.696Z,2.45
2018-02-18T13:10:34.174Z,2.10
2018-02-18T13:11:36.963Z,2.10
2018-02-18T13:12:40.335Z,2.40
2018-02-18T13:13:43.616Z,2.30
2018-02-18T13:14:46.187Z,2.12
2018-02-18T13:15:48.655Z,2.50
2018-02-18T13:16:51.364Z,2.00
2018-02-18T13:17:54.625Z,2.25
2018-02-18T13:18:57.119Z,1.80
2018-02-18T13:20:00.424Z,2.30
2018-02-18T13:21:02.923Z,1.87
2018-02-18T13:22:05.423Z,1.75
2018-02-18T13:23:08.798Z,2.00
2018-02-18T13:24:11.318Z,1.90
2018-02-18T13:25:13.843Z,1.80
2018-02-18T13:26:16.392Z,1.62
2018-02-18T13:27:18.934Z,1.98
2018-02-18T13:28:21.422Z,1.80
2018-02-18T13:29:23.949Z,2.00
2018-02-18T13:30:26.431Z,2.03
2018-02-18T13:31:29.718Z,1.95
2018-02-18T13:32:32.293Z,2.70
2018-02-18T13:33:35.451Z,1.98
2018-02-18T13:34:38.678Z,2.12
2018-02-18T13:35:41.198Z,2.08
2018-02-18T13:36:44.435Z,2.35
2018-02-18T13:37:46.942Z,2.20
2018-02-18T13:38:49.382Z,2.67
2018-02-18T13:39:51.842Z,1.92
2018-02-18T13:42:12.950Z,1.90
2018-02-18T13:43:15.443Z,1.80
2018-02-18T13:44:17.918Z,2.10
2018-02-18T13:45:21.158Z,1.75
2018-02-18T13:46:24.445Z,1.92
2018-02-18T13:47:26.934Z,1.95
2018-02-18T13:48:30.700Z,1.98
2018-02-18T13:49:33.173Z,1.87
2018-02-18T13:50:35.746Z,1.73
2018-02-18T13:51:38.215Z,2.72
2018-02-18T13:52:40.722Z,1.55
2018-02-18T13:53:43.236Z,1.90